createdAt,value
2023-05-05T00:00:23.600Z,76539.06
2023-05-05T00:07:59.013Z,76557.44
2023-05-05T00:15:32.939Z,76567.66
2023-05-05T00:23:08.441Z,76575.81
2023-05-05T00:30:42.333Z,76573.78
2023-05-05T00:38:17.690Z,76579.91
2023-05-05T00:46:03.406Z,76594.19
2023-05-05T00:53:40.597Z,76592.13
2023-05-05T01:01:15.722Z,76606.44
2023-05-05T01:09:05.547Z,76618.69
2023-05-05T01:16:46.700Z,76622.75
2023-05-05T01:24:50.876Z,76622.75
2023-05-05T01:32:28.677Z,76639.09
2023-05-05T01:40:10.142Z,76655.41
2023-05-05T01:47:48.187Z,76661.53
2023-05-05T01:55:25.885Z,76665.63
2023-05-05T02:03:04.178Z,76677.88
2023-05-05T02:10:41.107Z,76677.88
2023-05-05T02:18:16.525Z,76698.28
2023-05-05T02:25:53.792Z,76704.41
2023-05-05T02:33:34.310Z,76716.66
2023-05-05T02:49:04.358Z,76728.91
2023-05-05T02:56:42.426Z,76751.38
2023-05-05T03:12:22.663Z,76761.56
2023-05-05T03:19:58.629Z,76765.66
2023-05-05T03:27:32.592Z,76775.84
2023-05-05T03:35:08.648Z,76792.19
2023-05-05T03:42:42.926Z,76802.41
2023-05-05T03:50:18.258Z,76796.28
2023-05-05T03:57:52.470Z,76798.31
2023-05-05T04:05:27.951Z,76804.44
2023-05-05T04:13:02.366Z,76804.44
2023-05-05T04:20:37.773Z,76810.56
2023-05-05T04:28:11.575Z,76810.56
2023-05-05T04:35:46.911Z,76804.44
2023-05-05T04:43:21.144Z,76804.44
2023-05-05T04:50:56.797Z,76786.06
2023-05-05T04:58:31.278Z,76779.94
2023-05-05T05:06:06.721Z,76763.63
2023-05-05T05:13:41.549Z,76751.38
2023-05-05T05:21:16.907Z,76722.78
2023-05-05T05:28:51.009Z,76700.31
2023-05-05T05:36:26.346Z,76671.75
2023-05-05T05:44:00.616Z,76655.41
2023-05-05T05:51:36.170Z,76647.25
2023-05-05T05:59:10.231Z,76604.38
2023-05-05T06:06:45.878Z,76563.56
2023-05-05T06:22:12.975Z,76498.25
2023-05-05T06:29:47.100Z,76494.16
2023-05-05T06:37:22.655Z,76477.84
2023-05-05T06:44:56.721Z,76455.38
2023-05-05T07:00:24.611Z,76414.56
2023-05-05T07:08:00.247Z,76396.19
2023-05-05T07:23:26.984Z,76322.72
2023-05-05T07:31:00.919Z,76314.53
2023-05-05T07:38:36.460Z,76290.06
2023-05-05T07:46:10.596Z,76243.09
2023-05-05T07:53:46.092Z,76208.41
2023-05-05T08:01:20.651Z,76173.72
2023-05-05T08:08:56.322Z,76102.28
2023-05-05T08:16:30.517Z,76024.72
2023-05-05T08:24:06.336Z,75975.75
2023-05-05T08:31:40.349Z,75924.72
2023-05-05T08:47:07.482Z,75871.66
2023-05-05T08:54:48.661Z,75826.75
2023-05-05T09:02:24.298Z,75804.31
2023-05-05T09:10:00.428Z,75767.59
2023-05-05T09:17:34.621Z,75706.34
2023-05-05T09:33:04.412Z,75645.13
2023-05-05T09:40:48.196Z,75620.66
2023-05-05T09:48:27.108Z,75592.09
2023-05-05T09:56:02.653Z,75588.00
2023-05-05T10:03:52.162Z,75620.66
2023-05-05T10:11:27.544Z,75630.84
2023-05-05T10:27:00.194Z,75606.38
2023-05-05T10:34:40.766Z,75573.72
2023-05-05T10:42:18.479Z,75571.69
2023-05-05T10:49:58.993Z,75555.34
2023-05-05T10:57:40.847Z,75555.34
2023-05-05T11:05:18.114Z,75510.47
2023-05-05T11:13:25.888Z,75473.72
2023-05-05T11:29:07.167Z,75481.88
2023-05-05T11:36:42.716Z,75473.72
2023-05-05T11:52:13.562Z,75441.06
2023-05-05T11:59:54.119Z,75408.44
2023-05-05T12:07:31.325Z,75392.09
2023-05-05T12:23:04.106Z,75388.03
2023-05-05T12:30:38.224Z,75345.16
2023-05-05T12:46:10.412Z,75349.25
2023-05-05T12:53:46.499Z,75341.09
2023-05-05T13:01:20.615Z,75320.69
2023-05-05T13:08:56.923Z,75302.31
2023-05-05T13:16:37.082Z,75296.19
2023-05-05T13:32:04.195Z,75277.84
2023-05-05T13:39:39.562Z,75279.88
2023-05-05T13:47:14.250Z,75288.03
2023-05-05T13:54:49.727Z,75261.50
2023-05-05T14:02:24.297Z,75224.78
2023-05-05T14:10:00.380Z,75206.41
2023-05-05T14:17:34.477Z,75226.81
2023-05-05T14:25:10.414Z,75247.22
2023-05-05T14:32:44.403Z,75245.19
2023-05-05T14:40:19.964Z,75220.72
2023-05-05T14:47:54.049Z,75241.09
2023-05-05T14:55:29.401Z,75265.59
2023-05-05T15:03:03.655Z,75255.38
2023-05-05T15:10:39.265Z,75251.31
2023-05-05T15:18:13.318Z,75261.50
2023-05-05T15:25:48.769Z,75257.44
2023-05-05T15:33:22.764Z,75277.84
2023-05-05T15:40:58.248Z,75288.03
2023-05-05T15:48:32.606Z,75302.31
2023-05-05T15:56:08.927Z,75326.81
2023-05-05T16:03:42.874Z,75341.09
2023-05-05T16:11:19.450Z,75351.28
2023-05-05T16:18:56.961Z,75359.47
2023-05-05T16:26:32.294Z,75371.69
2023-05-05T16:34:06.251Z,75394.16
2023-05-05T16:41:41.878Z,75400.25
2023-05-05T16:49:16.072Z,75402.31
2023-05-05T17:04:43.464Z,75441.06
2023-05-05T17:12:18.895Z,75463.53
2023-05-05T17:19:53.562Z,75485.97
2023-05-05T17:27:29.207Z,75494.13
2023-05-05T17:35:03.334Z,75498.22
2023-05-05T17:42:39.091Z,75508.41
2023-05-05T17:58:05.705Z,75532.91
2023-05-05T18:05:39.599Z,75553.31
2023-05-05T18:21:06.694Z,75594.13
2023-05-05T18:36:33.882Z,75667.59
2023-05-05T18:44:09.179Z,75704.31
2023-05-05T18:51:42.997Z,75718.59
2023-05-05T18:59:18.861Z,75747.19
2023-05-05T19:06:52.890Z,75763.50
2023-05-05T19:14:28.419Z,75796.16
2023-05-05T19:29:55.000Z,75883.91
2023-05-05T19:37:28.979Z,75877.78
2023-05-05T19:45:05.295Z,75888.00
2023-05-05T19:52:41.799Z,75896.16
2023-05-05T20:08:09.983Z,75918.59
2023-05-05T20:15:45.289Z,75949.22
2023-05-05T20:23:19.156Z,75961.47
2023-05-05T20:30:54.834Z,75975.75
2023-05-05T20:38:28.988Z,75983.91
2023-05-05T20:46:04.600Z,76000.22
2023-05-05T20:53:38.620Z,76020.66
2023-05-05T21:01:14.489Z,76022.69
2023-05-05T21:08:48.503Z,76041.06
2023-05-05T21:16:23.801Z,76059.41
2023-05-05T21:23:57.910Z,76085.94
2023-05-05T21:31:33.534Z,76134.94
2023-05-05T21:47:00.079Z,76204.31
2023-05-05T21:54:34.027Z,76224.75
2023-05-05T22:02:09.361Z,76243.09
2023-05-05T22:09:43.774Z,76271.69
2023-05-05T22:17:19.150Z,76304.34
2023-05-05T22:24:53.504Z,76326.78
2023-05-05T22:32:28.843Z,76345.16
2023-05-05T22:40:02.843Z,76359.44
2023-05-05T22:47:38.278Z,76385.97
2023-05-05T22:55:14.704Z,76390.06
2023-05-05T23:02:50.049Z,76406.41
2023-05-05T23:10:24.168Z,76406.41
2023-05-05T23:17:59.592Z,76439.06
2023-05-05T23:25:34.841Z,76449.25
2023-05-05T23:33:10.237Z,76469.66
2023-05-05T23:40:44.527Z,76486.00
2023-05-05T23:48:20.057Z,76504.38
2023-05-05T23:55:54.022Z,76522.75
